Time;durP1;ratioP1;P1;durP2;ratioP2;P2;SDS_P1;SDS_P2;PMS_P1;PMS_P2;Temp;Humidity;BMP_temperature;BMP_pressure;BME280_temperature;BME280_humidity;BME280_pressure;Samples;Min_cycle;Max_cycle;Signal;HPM_P1;HPM_P2
2024/01/01 00:00:11;;;;;;;3.58;2.83;;;16.70;46.70;;;;;;5148430;27;47368;-66
2024/01/01 00:02:37;;;;;;;3.83;2.72;;;16.70;46.70;;;;;;5148370;27;46245;-65
2024/01/01 00:05:05;;;;;;;3.35;3.05;;;16.70;46.70;;;;;;5148413;27;45356;-64
2024/01/01 00:07:33;;;;;;;4.22;3.08;;;16.70;46.80;;;;;;5148482;27;45304;-64
2024/01/01 00:10:00;;;;;;;3.50;2.78;;;16.60;46.70;;;;;;5148165;27;46383;-66
2024/01/01 00:12:26;;;;;;;4.60;2.75;;;16.70;46.80;;;;;;5147136;27;45249;-65
2024/01/01 00:14:53;;;;;;;4.68;2.70;;;16.60;46.80;;;;;;5168599;27;45264;-65
2024/01/01 00:17:19;;;;;;;3.33;2.60;;;16.60;46.80;;;;;;5169458;27;45539;-65
2024/01/01 00:19:46;;;;;;;3.58;2.80;;;16.60;46.80;;;;;;5169080;27;47331;-65
2024/01/01 00:22:13;;;;;;;2.50;2.30;;;16.60;46.80;;;;;;5165334;27;45403;-65
2024/01/01 00:24:41;;;;;;;3.17;2.58;;;16.50;46.80;;;;;;5148129;27;45374;-65
2024/01/01 00:27:08;;;;;;;5.22;2.92;;;16.50;46.80;;;;;;5148194;27;45356;-65
2024/01/01 00:29:34;;;;;;;3.50;2.70;;;16.60;46.90;;;;;;5147956;27;48732;-65
2024/01/01 00:32:02;;;;;;;4.10;2.63;;;16.50;46.90;;;;;;5148107;27;45615;-64
2024/01/01 00:34:28;;;;;;;3.45;2.50;;;16.50;46.90;;;;;;5148195;27;45422;-64
2024/01/01 00:36:56;;;;;;;3.53;2.55;;;16.50;46.90;;;;;;5148219;27;45409;-65
2024/01/01 00:39:22;;;;;;;3.28;2.50;;;16.50;46.90;;;;;;5149232;27;46649;-64
2024/01/01 00:41:51;;;;;;;3.60;2.33;;;16.50;47.00;;;;;;5168907;27;45278;-64
2024/01/01 00:44:17;;;;;;;3.80;2.70;;;16.40;46.90;;;;;;5168626;27;45431;-65
2024/01/01 00:46:44;;;;;;;3.05;2.53;;;16.50;47.00;;;;;;5168979;27;45348;-65
2024/01/01 00:49:11;;;;;;;3.30;2.22;;;16.50;47.10;;;;;;5168659;27;45372;-65
2024/01/01 00:51:38;;;;;;;3.30;2.38;;;16.40;47.00;;;;;;5168631;27;45279;-65
2024/01/01 00:54:05;;;;;;;2.60;2.25;;;16.40;47.10;;;;;;5168853;27;45265;-65
2024/01/01 00:56:31;;;;;;;2.97;2.42;;;16.40;47.10;;;;;;5168942;27;45343;-65
2024/01/01 00:59:00;;;;;;;3.05;2.53;;;16.40;47.10;;;;;;5168690;27;47279;-65
2024/01/01 01:01:26;;;;;;;3.50;2.42;;;16.30;47.10;;;;;;5168624;27;45334;-65
2024/01/01 01:03:53;;;;;;;2.70;2.42;;;16.40;47.20;;;;;;5168665;27;45236;-64
2024/01/01 01:06:20;;;;;;;3.70;2.78;;;16.40;47.20;;;;;;5168685;27;45392;-65
2024/01/01 01:08:47;;;;;;;3.83;2.47;;;16.30;47.10;;;;;;5168659;27;46380;-64
2024/01/01 01:11:14;;;;;;;4.10;2.67;;;16.30;47.20;;;;;;5168296;27;45391;-64
2024/01/01 01:13:41;;;;;;;3.17;2.47;;;16.30;47.20;;;;;;5181852;27;45324;-64
2024/01/01 01:16:09;;;;;;;4.18;2.60;;;16.30;47.20;;;;;;5189833;27;45355;-65
2024/01/01 01:18:36;;;;;;;3.85;2.70;;;16.30;47.20;;;;;;5189430;27;46411;-64
2024/01/01 01:21:03;;;;;;;3.35;2.15;;;16.30;47.30;;;;;;5189551;27;45321;-65
2024/01/01 01:23:30;;;;;;;2.25;1.98;;;16.20;47.20;;;;;;5176198;27;45255;-64
2024/01/01 01:25:57;;;;;;;3.90;2.20;;;16.20;47.30;;;;;;5172039;27;45388;-64
2024/01/01 01:28:24;;;;;;;3.10;2.30;;;16.20;47.30;;;;;;5171952;27;46343;-64
2024/01/01 01:30:50;;;;;;;2.53;2.25;;;16.20;47.30;;;;;;5171832;27;45209;-64
2024/01/01 01:33:19;;;;;;;2.40;2.20;;;16.20;47.40;;;;;;5172171;27;45360;-65
2024/01/01 01:35:45;;;;;;;3.03;2.47;;;16.20;47.40;;;;;;5172047;27;45433;-66
2024/01/01 01:38:12;;;;;;;3.95;2.40;;;16.20;47.40;;;;;;5171705;27;46403;-64
2024/01/01 01:40:39;;;;;;;2.70;2.30;;;16.20;47.50;;;;;;5171558;27;45205;-65
2024/01/01 01:43:20;;;;;;;2.47;1.92;;;16.20;47.40;;;;;;5169293;27;45295;-64
2024/01/01 01:45:47;;;;;;;3.70;2.38;;;16.10;47.50;;;;;;5171736;27;45473;-66
2024/01/01 01:48:15;;;;;;;1.90;1.77;;;16.10;47.50;;;;;;5171705;27;45459;-65
2024/01/01 01:50:44;;;;;;;3.05;2.38;;;16.10;47.50;;;;;;5171818;27;45273;-65
2024/01/01 01:53:12;;;;;;;3.85;2.03;;;16.10;47.50;;;;;;5171938;27;45303;-65
2024/01/01 01:55:38;;;;;;;1.95;1.80;;;16.10;47.50;;;;;;5171910;27;45367;-65
2024/01/01 01:58:05;;;;;;;2.25;2.05;;;16.10;47.60;;;;;;5171387;27;45550;-64
2024/01/01 02:00:32;;;;;;;2.20;1.80;;;16.10;47.60;;;;;;5170984;27;45556;-66
2024/01/01 02:02:59;;;;;;;3.47;2.60;;;16.10;47.60;;;;;;5171705;27;45436;-65
2024/01/01 02:05:26;;;;;;;3.13;2.03;;;16.10;47.60;;;;;;5171598;27;45430;-65
2024/01/01 02:07:54;;;;;;;2.00;1.83;;;16.10;47.60;;;;;;5171257;27;46654;-65
2024/01/01 02:10:21;;;;;;;2.17;1.98;;;16.00;47.60;;;;;;5171337;27;45320;-65
2024/01/01 02:12:48;;;;;;;2.33;2.00;;;16.00;47.60;;;;;;5177174;27;45256;-64
2024/01/01 02:15:15;;;;;;;2.60;1.95;;;16.00;47.70;;;;;;5192826;27;45336;-65
2024/01/01 02:17:42;;;;;;;2.10;1.92;;;16.00;47.70;;;;;;5192382;27;45459;-65
2024/01/01 02:20:09;;;;;;;2.80;1.88;;;16.00;47.70;;;;;;5192379;27;45318;-65
2024/01/01 02:22:38;;;;;;;2.63;1.90;;;16.00;47.70;;;;;;5185231;27;45181;-66
2024/01/01 02:25:08;;;;;;;2.85;1.88;;;16.00;47.70;;;;;;5171405;27;45427;-65
2024/01/01 02:27:35;;;;;;;2.45;2.22;;;15.90;47.70;;;;;;5170948;27;47544;-66
2024/01/01 02:30:02;;;;;;;2.20;2.00;;;15.90;47.70;;;;;;5171181;27;45180;-66
2024/01/01 02:32:28;;;;;;;2.13;1.80;;;15.90;47.70;;;;;;5170922;27;45365;-66
2024/01/01 02:34:55;;;;;;;3.00;1.90;;;15.90;47.70;;;;;;5169723;27;45438;-66
2024/01/01 02:37:22;;;;;;;2.33;2.10;;;15.90;47.70;;;;;;5170919;27;46374;-66
2024/01/01 02:39:49;;;;;;;2.90;1.85;;;15.90;47.80;;;;;;5168269;27;45231;-65
2024/01/01 02:42:17;;;;;;;3.33;1.70;;;15.90;47.80;;;;;;5170837;27;45356;-65
2024/01/01 02:44:44;;;;;;;1.98;1.60;;;15.90;47.80;;;;;;5170790;27;45479;-65
2024/01/01 02:47:11;;;;;;;2.65;1.50;;;15.90;47.70;;;;;;5170574;27;46817;-65
2024/01/01 02:49:37;;;;;;;1.95;1.70;;;15.90;47.80;;;;;;5170787;27;45568;-65
2024/01/01 02:52:05;;;;;;;2.33;1.70;;;15.80;47.80;;;;;;5170658;27;45252;-65
2024/01/01 02:54:32;;;;;;;1.77;1.50;;;15.80;47.80;;;;;;5171142;27;45286;-65
2024/01/01 02:56:58;;;;;;;2.05;1.58;;;15.80;47.80;;;;;;5170300;27;46405;-65
2024/01/01 02:59:27;;;;;;;2.67;1.75;;;15.80;47.80;;;;;;5170538;27;45400;-65
2024/01/01 03:01:53;;;;;;;2.47;1.67;;;15.80;47.80;;;;;;5161854;27;45395;-65
2024/01/01 03:04:20;;;;;;;2.00;1.80;;;15.80;47.80;;;;;;5170757;27;45539;-65
2024/01/01 03:06:47;;;;;;;2.53;1.70;;;15.80;47.80;;;;;;5169947;27;45262;-66
2024/01/01 03:09:14;;;;;;;3.58;1.95;;;15.80;47.90;;;;;;5170430;27;45391;-65
2024/01/01 03:11:41;;;;;;;1.80;1.70;;;15.70;47.80;;;;;;5170716;27;45411;-65
2024/01/01 03:14:07;;;;;;;2.40;1.80;;;15.70;47.90;;;;;;5187816;27;45307;-64
2024/01/01 03:16:36;;;;;;;1.83;1.73;;;15.70;47.90;;;;;;5191277;27;48351;-65
2024/01/01 03:19:02;;;;;;;2.20;1.58;;;15.70;47.90;;;;;;5191475;27;45285;-64
2024/01/01 03:21:29;;;;;;;2.17;1.70;;;15.70;48.00;;;;;;5191545;27;45401;-65
2024/01/01 03:23:56;;;;;;;1.70;1.60;;;15.70;47.90;;;;;;5169952;27;45432;-65
2024/01/01 03:26:23;;;;;;;2.25;1.75;;;15.70;48.00;;;;;;5169952;27;45384;-65
2024/01/01 03:28:50;;;;;;;2.13;1.70;;;15.70;48.00;;;;;;5170048;27;45180;-64
2024/01/01 03:31:17;;;;;;;1.60;1.50;;;15.60;48.00;;;;;;5170127;27;45237;-66
2024/01/01 03:33:45;;;;;;;1.40;1.30;;;15.60;48.00;;;;;;5170332;27;45225;-65
2024/01/01 03:36:17;;;;;;;1.92;1.50;;;15.60;48.00;;;;;;5169770;27;46667;-65
2024/01/01 03:38:44;;;;;;;1.65;1.55;;;15.60;47.90;;;;;;5170072;27;45317;-65
2024/01/01 03:41:11;;;;;;;2.65;1.55;;;15.60;48.00;;;;;;5169862;27;45353;-64
2024/01/01 03:43:38;;;;;;;1.50;1.40;;;15.60;48.00;;;;;;5170120;27;45527;-65
2024/01/01 03:46:05;;;;;;;1.38;1.27;;;15.60;48.10;;;;;;5169126;27;45494;-65
2024/01/01 03:48:32;;;;;;;2.67;1.55;;;15.60;48.00;;;;;;5169860;27;45322;-65
2024/01/01 03:51:00;;;;;;;1.55;1.10;;;15.60;48.00;;;;;;5169830;27;45248;-65
2024/01/01 03:53:27;;;;;;;1.80;1.35;;;15.60;48.00;;;;;;5170025;27;45479;-65
2024/01/01 03:55:53;;;;;;;1.50;1.40;;;15.60;48.00;;;;;;5169511;27;45402;-65
2024/01/01 03:58:20;;;;;;;1.27;1.17;;;15.60;48.00;;;;;;5169601;27;45246;-65
2024/01/01 04:00:47;;;;;;;1.10;0.98;;;15.60;48.10;;;;;;5169776;27;45291;-64
2024/01/01 04:03:14;;;;;;;1.50;1.20;;;15.50;48.10;;;;;;5169769;27;45550;-65
2024/01/01 04:05:41;;;;;;;1.67;1.45;;;15.50;48.10;;;;;;5169378;27;46566;-65
2024/01/01 04:08:09;;;;;;;1.33;1.23;;;15.50;48.10;;;;;;5166625;27;45507;-65
2024/01/01 04:10:36;;;;;;;1.70;1.33;;;15.50;48.10;;;;;;5169527;27;45266;-65
2024/01/01 04:13:03;;;;;;;1.30;1.20;;;15.60;48.10;;;;;;5177609;27;45173;-65
2024/01/01 04:15:30;;;;;;;0.98;0.93;;;15.60;48.60;;;;;;5190513;27;47531;-65
2024/01/01 04:17:57;;;;;;;2.55;1.30;;;15.70;47.90;;;;;;5190484;27;45559;-65
2024/01/01 04:20:24;;;;;;;1.00;1.00;;;15.80;47.80;;;;;;5190592;27;45271;-66
2024/01/01 04:22:51;;;;;;;1.73;1.00;;;15.90;47.60;;;;;;5181252;27;45166;-65
2024/01/01 04:25:20;;;;;;;1.23;1.13;;;16.00;47.50;;;;;;5169044;27;45288;-64
2024/01/01 04:27:47;;;;;;;1.27;1.08;;;16.00;47.20;;;;;;5169087;27;45440;-65
2024/01/01 04:30:14;;;;;;;1.63;1.20;;;16.20;47.00;;;;;;5169273;27;45369;-65
2024/01/01 04:32:41;;;;;;;2.10;1.20;;;16.30;46.90;;;;;;5169447;27;45452;-65
2024/01/01 04:35:09;;;;;;;1.25;1.15;;;16.30;46.50;;;;;;5168928;27;46567;-65
2024/01/01 04:37:35;;;;;;;2.08;1.20;;;16.50;46.40;;;;;;5169247;27;45324;-64
2024/01/01 04:40:04;;;;;;;1.33;1.10;;;16.60;46.20;;;;;;5168908;27;45326;-65
2024/01/01 04:42:33;;;;;;;1.00;1.00;;;16.70;46.00;;;;;;5169345;27;45287;-65
2024/01/01 04:45:00;;;;;;;1.35;1.05;;;16.80;45.70;;;;;;5168762;27;45453;-65
2024/01/01 04:47:27;;;;;;;1.10;1.00;;;16.90;45.60;;;;;;5168739;27;45381;-64
2024/01/01 04:49:54;;;;;;;0.93;0.93;;;17.00;45.40;;;;;;5169170;27;45475;-65
2024/01/01 04:52:21;;;;;;;1.13;1.00;;;17.10;45.30;;;;;;5169164;27;45317;-65
2024/01/01 04:54:47;;;;;;;0.90;0.90;;;17.20;45.10;;;;;;5168710;27;45744;-65
2024/01/01 04:57:14;;;;;;;1.48;0.98;;;17.20;44.90;;;;;;5169274;27;45314;-66
2024/01/01 04:59:42;;;;;;;1.20;1.10;;;17.30;44.80;;;;;;5175565;27;45327;-65
2024/01/01 05:02:10;;;;;;;0.80;0.77;;;17.40;44.70;;;;;;5175994;27;45303;-64
2024/01/01 05:04:37;;;;;;;1.95;0.93;;;17.40;44.60;;;;;;5175589;27;47725;-65
2024/01/01 05:07:04;;;;;;;1.05;0.80;;;17.50;44.50;;;;;;5175473;27;45309;-64
2024/01/01 05:09:31;;;;;;;1.17;0.80;;;17.60;44.40;;;;;;5175964;27;45359;-65
2024/01/01 05:11:58;;;;;;;0.95;0.88;;;17.60;44.30;;;;;;5176055;27;45356;-65
2024/01/01 05:14:24;;;;;;;0.88;0.88;;;17.70;44.20;;;;;;5195387;27;45471;-67
2024/01/01 05:16:53;;;;;;;1.23;0.80;;;17.70;44.10;;;;;;5196579;27;45382;-65
2024/01/01 05:19:19;;;;;;;2.03;0.80;;;17.80;44.10;;;;;;5196868;27;45334;-65
2024/01/01 05:21:46;;;;;;;2.20;1.00;;;17.80;44.00;;;;;;5194257;27;45437;-65
2024/01/01 05:24:13;;;;;;;0.80;0.77;;;17.90;43.90;;;;;;5196645;27;45287;-65
2024/01/01 05:26:40;;;;;;;0.63;0.60;;;17.90;43.90;;;;;;5196388;27;45368;-65
2024/01/01 05:29:07;;;;;;;0.80;0.80;;;18.00;43.80;;;;;;5196907;27;45276;-65
2024/01/01 05:31:34;;;;;;;2.03;0.70;;;18.00;43.70;;;;;;5197031;27;45355;-66
2024/01/01 05:34:02;;;;;;;0.88;0.80;;;18.00;43.70;;;;;;5196685;27;46659;-66
2024/01/01 05:36:29;;;;;;;1.13;0.85;;;18.00;43.60;;;;;;5196255;27;45431;-66
2024/01/01 05:38:56;;;;;;;1.17;0.80;;;18.10;43.60;;;;;;5196612;27;45347;-65
2024/01/01 05:41:23;;;;;;;1.00;0.70;;;18.10;43.50;;;;;;5177171;27;45172;-65
2024/01/01 05:43:50;;;;;;;0.85;0.85;;;18.10;43.40;;;;;;5174952;27;46809;-66
2024/01/01 05:46:17;;;;;;;0.77;0.77;;;18.20;43.40;;;;;;5175170;27;45383;-65
2024/01/01 05:48:44;;;;;;;0.55;0.55;;;18.20;43.40;;;;;;5175305;27;45422;-65
2024/01/01 05:51:12;;;;;;;0.88;0.80;;;18.20;43.40;;;;;;5175428;27;45373;-65
2024/01/01 05:53:39;;;;;;;1.17;0.70;;;18.20;43.30;;;;;;5175015;27;45266;-65
2024/01/01 05:56:06;;;;;;;0.70;0.70;;;18.20;43.30;;;;;;5175293;27;45274;-65
2024/01/01 05:58:33;;;;;;;0.68;0.50;;;18.20;43.20;;;;;;5175135;27;45372;-66
2024/01/01 06:01:00;;;;;;;0.50;0.50;;;18.20;43.20;;;;;;5175401;27;45360;-65
2024/01/01 06:03:26;;;;;;;0.90;0.60;;;18.30;43.20;;;;;;5174879;27;45701;-65
2024/01/01 06:05:58;;;;;;;1.10;0.60;;;18.30;43.20;;;;;;5174714;27;45252;-65
2024/01/01 06:08:27;;;;;;;0.63;0.63;;;18.30;43.20;;;;;;5172307;27;45358;-65
2024/01/01 06:10:53;;;;;;;1.35;0.93;;;18.30;43.20;;;;;;5169093;27;45329;-65
2024/01/01 06:13:23;;;;;;;0.60;0.60;;;18.30;43.10;;;;;;5160695;27;45264;-65
2024/01/01 06:15:53;;;;;;;0.73;0.63;;;18.40;43.10;;;;;;5150163;27;45413;-66
2024/01/01 06:18:20;;;;;;;0.60;0.60;;;18.40;43.10;;;;;;5150345;27;45152;-65
2024/01/01 06:20:47;;;;;;;0.52;0.50;;;18.40;43.10;;;;;;5150550;27;45409;-65
2024/01/01 06:23:13;;;;;;;0.80;0.65;;;18.30;43.00;;;;;;5149952;27;47339;-65
2024/01/01 06:25:42;;;;;;;1.02;0.70;;;18.40;43.00;;;;;;5149868;27;45564;-65
2024/01/01 06:28:08;;;;;;;0.50;0.50;;;18.40;43.00;;;;;;5150516;27;45262;-65
2024/01/01 06:30:35;;;;;;;0.73;0.60;;;18.40;42.90;;;;;;5150464;27;45298;-66
2024/01/01 06:33:03;;;;;;;0.65;0.60;;;18.40;43.00;;;;;;5149965;27;46298;-65
2024/01/01 06:35:30;;;;;;;0.60;0.60;;;18.40;43.00;;;;;;5149978;27;45308;-66
2024/01/01 06:37:57;;;;;;;0.70;0.60;;;18.50;43.00;;;;;;5150386;27;45475;-66
2024/01/01 06:40:24;;;;;;;0.73;0.57;;;18.40;43.20;;;;;;5168210;27;45220;-65
2024/01/01 06:42:52;;;;;;;0.40;0.40;;;18.40;43.00;;;;;;5192056;27;45387;-66
2024/01/01 06:45:19;;;;;;;0.65;0.60;;;18.50;43.00;;;;;;5191913;27;45375;-66
2024/01/01 06:47:46;;;;;;;1.02;0.77;;;18.50;42.90;;;;;;5192158;27;45411;-67
2024/01/01 06:50:13;;;;;;;0.65;0.65;;;18.50;43.50;;;;;;5192499;27;45245;-66
2024/01/01 06:52:40;;;;;;;0.52;0.52;;;18.50;42.90;;;;;;5191928;27;45456;-66
2024/01/01 06:55:07;;;;;;;1.42;0.75;;;18.50;42.90;;;;;;5191804;27;46407;-66
2024/01/01 06:57:34;;;;;;;1.75;0.60;;;18.50;42.90;;;;;;5192121;27;45390;-67
2024/01/01 07:00:02;;;;;;;0.45;0.43;;;18.60;42.90;;;;;;5191676;27;45394;-66
2024/01/01 07:02:29;;;;;;;0.50;0.50;;;18.60;42.90;;;;;;5191796;27;45495;-65
2024/01/01 07:04:56;;;;;;;0.68;0.43;;;18.50;42.90;;;;;;5191541;27;45167;-65
2024/01/01 07:07:24;;;;;;;0.73;0.60;;;18.60;43.00;;;;;;5191498;27;45398;-66
2024/01/01 07:09:50;;;;;;;1.20;0.70;;;18.60;42.90;;;;;;5191863;27;45369;-65
2024/01/01 07:12:18;;;;;;;0.63;0.60;;;18.60;43.00;;;;;;5190463;27;47338;-66
2024/01/01 07:14:45;;;;;;;0.50;0.50;;;18.60;42.90;;;;;;5170474;27;45187;-66
2024/01/01 07:17:13;;;;;;;1.30;0.50;;;18.60;42.90;;;;;;5170724;27;45292;-67
2024/01/01 07:19:40;;;;;;;0.68;0.68;;;18.60;42.90;;;;;;5170496;27;45364;-67
2024/01/01 07:22:06;;;;;;;0.68;0.40;;;18.50;42.90;;;;;;5172392;27;46424;-66
2024/01/01 07:24:33;;;;;;;0.57;0.50;;;18.60;43.00;;;;;;5191459;27;45292;-66
2024/01/01 07:27:00;;;;;;;0.68;0.40;;;18.60;43.00;;;;;;5191396;27;45194;-66
2024/01/01 07:29:27;;;;;;;1.38;0.55;;;18.50;42.90;;;;;;5191332;27;45448;-66
2024/01/01 07:31:54;;;;;;;0.70;0.45;;;18.60;43.00;;;;;;5191240;27;45327;-66
2024/01/01 07:34:23;;;;;;;0.75;0.60;;;18.60;43.10;;;;;;5191226;27;45311;-65
2024/01/01 07:36:49;;;;;;;0.65;0.60;;;18.60;43.00;;;;;;5191117;27;45254;-65
2024/01/01 07:39:19;;;;;;;1.00;0.57;;;18.60;43.00;;;;;;5190341;27;45312;-65
2024/01/01 07:41:46;;;;;;;0.95;0.50;;;18.50;43.00;;;;;;5169772;27;46741;-65
2024/01/01 07:44:12;;;;;;;0.50;0.50;;;18.50;43.00;;;;;;5169784;27;45329;-65
2024/01/01 07:46:39;;;;;;;0.85;0.55;;;18.50;43.10;;;;;;5169892;27;45290;-65
2024/01/01 07:49:06;;;;;;;0.75;0.60;;;18.50;43.00;;;;;;5169943;27;45246;-64
2024/01/01 07:51:34;;;;;;;0.95;0.40;;;18.50;43.00;;;;;;5169708;27;45463;-65
2024/01/01 07:54:01;;;;;;;1.75;0.50;;;18.50;43.70;;;;;;5169786;27;45357;-65
2024/01/01 07:56:28;;;;;;;0.55;0.55;;;18.50;43.10;;;;;;5169653;27;45206;-66
2024/01/01 07:58:55;;;;;;;1.27;0.50;;;18.50;43.10;;;;;;5169844;27;45171;-65
2024/01/01 08:01:22;;;;;;;0.40;0.40;;;18.50;43.00;;;;;;5169502;27;46445;-65
2024/01/01 08:03:49;;;;;;;0.63;0.50;;;18.50;43.10;;;;;;5169740;27;45391;-66
2024/01/01 08:06:17;;;;;;;0.60;0.60;;;18.50;43.10;;;;;;5169516;27;45433;-65
2024/01/01 08:08:46;;;;;;;0.40;0.40;;;18.50;43.10;;;;;;5169725;27;45316;-65
2024/01/01 08:11:13;;;;;;;0.52;0.40;;;18.50;43.00;;;;;;5169662;27;45526;-65
2024/01/01 08:13:40;;;;;;;0.63;0.47;;;18.60;43.10;;;;;;5156019;27;45988;-65
2024/01/01 08:16:07;;;;;;;0.47;0.47;;;18.60;43.10;;;;;;5148520;27;45308;-65
2024/01/01 08:18:34;;;;;;;0.57;0.55;;;18.50;43.00;;;;;;5148705;27;45468;-65
2024/01/01 08:21:00;;;;;;;0.60;0.60;;;18.50;43.00;;;;;;5148119;27;46474;-66
2024/01/01 08:23:27;;;;;;;1.23;0.52;;;18.60;43.10;;;;;;5148195;27;45199;-64
2024/01/01 08:25:55;;;;;;;1.73;0.47;;;18.60;43.10;;;;;;5148138;27;45231;-65
2024/01/01 08:28:22;;;;;;;0.50;0.50;;;18.60;43.00;;;;;;5148451;27;45461;-65
2024/01/01 08:30:49;;;;;;;0.55;0.35;;;18.60;43.10;;;;;;5147991;27;45302;-65
2024/01/01 08:33:16;;;;;;;1.80;0.50;;;18.60;43.60;;;;;;5147228;27;45249;-64
2024/01/01 08:35:43;;;;;;;0.50;0.25;;;18.60;43.00;;;;;;5148137;27;45354;-64
2024/01/01 08:38:10;;;;;;;0.65;0.55;;;18.60;43.00;;;;;;5148314;27;45310;-65
2024/01/01 08:40:37;;;;;;;0.75;0.30;;;18.60;43.60;;;;;;5169503;27;45489;-65
2024/01/01 08:43:06;;;;;;;0.65;0.65;;;18.60;42.90;;;;;;5190292;27;46847;-64
2024/01/01 08:45:32;;;;;;;0.93;0.70;;;18.60;43.00;;;;;;5187381;27;45326;-65
2024/01/01 08:47:59;;;;;;;0.95;0.40;;;18.60;42.90;;;;;;5190229;27;45422;-65
2024/01/01 08:50:26;;;;;;;0.30;0.30;;;18.60;42.90;;;;;;5189934;27;45498;-65
2024/01/01 08:52:53;;;;;;;0.98;0.47;;;18.60;42.90;;;;;;5189978;27;45292;-64
2024/01/01 08:55:20;;;;;;;3.10;0.40;;;18.60;42.90;;;;;;5189998;27;45279;-65
2024/01/01 08:57:46;;;;;;;0.63;0.57;;;18.60;42.90;;;;;;5190237;27;45170;-65
2024/01/01 09:00:16;;;;;;;0.85;0.40;;;18.60;43.00;;;;;;5189895;27;46383;-65
2024/01/01 09:02:43;;;;;;;0.40;0.40;;;18.60;42.90;;;;;;5190117;27;45338;-65
2024/01/01 09:05:10;;;;;;;0.82;0.30;;;18.70;42.80;;;;;;5189951;27;45340;-64
2024/01/01 09:07:37;;;;;;;0.45;0.43;;;18.70;42.80;;;;;;5190091;27;45310;-65
2024/01/01 09:10:04;;;;;;;0.98;0.30;;;18.70;42.80;;;;;;5189589;27;46399;-65
2024/01/01 09:12:31;;;;;;;0.90;0.40;;;18.70;42.70;;;;;;5186436;27;45388;-65
2024/01/01 09:14:58;;;;;;;0.43;0.40;;;18.70;42.70;;;;;;5168781;27;45303;-65
2024/01/01 09:17:26;;;;;;;1.30;0.60;;;18.70;42.70;;;;;;5168614;27;45393;-64
2024/01/01 09:19:53;;;;;;;0.65;0.40;;;18.80;42.70;;;;;;5168398;27;46569;-65
2024/01/01 09:22:20;;;;;;;0.88;0.25;;;18.80;42.70;;;;;;5173082;27;45488;-65
2024/01/01 09:24:47;;;;;;;0.40;0.40;;;18.80;42.70;;;;;;5189827;27;45333;-65
2024/01/01 09:27:13;;;;;;;1.77;0.55;;;18.80;42.60;;;;;;5189735;27;45361;-65
2024/01/01 09:29:40;;;;;;;0.90;0.30;;;18.80;42.60;;;;;;5189528;27;46745;-64
2024/01/01 09:32:07;;;;;;;1.63;0.50;;;18.80;43.20;;;;;;5189362;27;45264;-64
2024/01/01 09:34:35;;;;;;;1.92;0.55;;;18.80;42.60;;;;;;5189566;27;45305;-64
2024/01/01 09:37:02;;;;;;;0.45;0.43;;;18.80;42.60;;;;;;5189555;27;45392;-65
2024/01/01 09:39:29;;;;;;;0.40;0.40;;;18.80;42.60;;;;;;5189148;27;45267;-65
2024/01/01 09:41:56;;;;;;;1.30;0.60;;;18.80;42.60;;;;;;5189436;27;45304;-65
2024/01/01 09:44:22;;;;;;;0.65;0.43;;;18.80;42.60;;;;;;5190859;27;45331;-64
2024/01/01 09:46:49;;;;;;;0.70;0.22;;;18.80;42.60;;;;;;5192905;27;45386;-64
2024/01/01 09:49:16;;;;;;;1.73;0.55;;;18.80;42.60;;;;;;5192850;27;46380;-64
2024/01/01 09:51:44;;;;;;;0.25;0.25;;;18.80;42.60;;;;;;5193057;27;45311;-65
2024/01/01 09:54:11;;;;;;;1.60;0.50;;;18.80;42.60;;;;;;5193100;27;45200;-65
2024/01/01 09:56:38;;;;;;;0.75;0.65;;;18.80;42.50;;;;;;5193093;27;45335;-65
2024/01/01 09:59:05;;;;;;;0.90;0.40;;;18.90;42.60;;;;;;5192648;27;45414;-65
2024/01/01 10:01:33;;;;;;;0.35;0.35;;;18.80;42.50;;;;;;5192636;27;45326;-64
2024/01/01 10:04:02;;;;;;;3.30;0.63;;;18.90;42.60;;;;;;5192833;27;45231;-65
2024/01/01 10:06:29;;;;;;;0.43;0.40;;;18.90;42.60;;;;;;5192973;27;45307;-64
2024/01/01 10:09:07;;;;;;;0.65;0.32;;;18.90;42.50;;;;;;5192507;27;46551;-64
2024/01/01 10:11:34;;;;;;;1.15;0.55;;;18.90;42.50;;;;;;5192511;27;45309;-64
2024/01/01 10:14:03;;;;;;;0.57;0.52;;;18.90;42.50;;;;;;5176148;27;45363;-64
2024/01/01 10:16:30;;;;;;;0.95;0.45;;;18.90;42.60;;;;;;5171524;27;45413;-64
2024/01/01 10:18:58;;;;;;;1.33;0.60;;;18.90;42.50;;;;;;5171133;27;45368;-64
2024/01/01 10:21:29;;;;;;;0.75;0.50;;;18.90;42.50;;;;;;5171578;27;45320;-64
2024/01/01 10:23:56;;;;;;;1.58;0.55;;;18.90;42.50;;;;;;5190149;27;45310;-64
2024/01/01 10:26:24;;;;;;;2.05;0.50;;;18.90;42.50;;;;;;5192670;27;45419;-64
2024/01/01 10:28:51;;;;;;;0.68;0.50;;;18.90;42.50;;;;;;5192223;27;45247;-65
2024/01/01 10:31:18;;;;;;;0.95;0.50;;;19.00;42.50;;;;;;5182684;27;45483;-63
2024/01/01 10:33:48;;;;;;;1.42;0.65;;;19.00;42.50;;;;;;5150020;27;45387;-64
2024/01/01 10:36:16;;;;;;;2.05;0.60;;;19.00;42.50;;;;;;5150093;27;45418;-64
2024/01/01 10:38:43;;;;;;;1.17;0.60;;;19.00;42.10;;;;;;5149910;27;46455;-64
2024/01/01 10:41:10;;;;;;;1.55;0.73;;;18.90;41.90;;;;;;5149543;27;45479;-63
2024/01/01 10:43:40;;;;;;;0.73;0.32;;;18.90;41.90;;;;;;5150100;27;45360;-64
2024/01/01 10:46:07;;;;;;;1.77;0.63;;;18.90;42.00;;;;;;5149999;27;45563;-63
2024/01/01 10:48:35;;;;;;;2.30;1.02;;;18.80;42.00;;;;;;5149479;27;45424;-63
2024/01/01 10:51:08;;;;;;;3.35;0.77;;;18.80;41.90;;;;;;5149691;27;45439;-65
2024/01/01 10:53:56;;;;;;;2.35;0.63;;;18.80;41.90;;;;;;5149880;27;45393;-64
2024/01/01 10:56:28;;;;;;;1.70;0.77;;;18.80;42.10;;;;;;5148702;27;45398;-64
2024/01/01 10:59:05;;;;;;;1.77;0.80;;;18.80;42.10;;;;;;5149585;27;45525;-65
2024/01/01 11:01:32;;;;;;;1.27;0.95;;;18.70;42.20;;;;;;5149917;27;45426;-65
2024/01/01 11:03:59;;;;;;;3.08;0.93;;;18.70;42.30;;;;;;5150278;27;45379;-65
2024/01/01 11:06:28;;;;;;;0.63;0.63;;;18.80;42.40;;;;;;5150050;27;45280;-66
2024/01/01 11:08:55;;;;;;;2.03;0.70;;;18.80;42.40;;;;;;5149722;27;46426;-65
2024/01/01 11:11:23;;;;;;;1.90;1.02;;;18.90;42.40;;;;;;5149539;27;45310;-64
2024/01/01 11:13:54;;;;;;;1.88;0.65;;;18.90;42.90;;;;;;5164489;27;45353;-64
2024/01/01 11:16:22;;;;;;;1.63;0.80;;;19.00;42.30;;;;;;5170733;27;45328;-65
2024/01/01 11:18:49;;;;;;;3.13;1.10;;;19.00;42.90;;;;;;5170146;27;45469;-64
2024/01/01 11:21:32;;;;;;;0.75;0.75;;;19.00;42.40;;;;;;5170512;27;45259;-65
2024/01/01 11:24:01;;;;;;;2.13;0.75;;;19.10;42.40;;;;;;5151345;27;45295;-65
2024/01/01 11:26:30;;;;;;;0.65;0.55;;;19.10;42.40;;;;;;5150111;27;45321;-67
2024/01/01 11:28:58;;;;;;;1.60;0.77;;;19.10;42.30;;;;;;5149924;27;46773;-65
2024/01/01 11:31:27;;;;;;;2.60;0.70;;;19.10;42.40;;;;;;5149703;27;45315;-67
2024/01/01 11:34:04;;;;;;;0.60;0.60;;;19.10;42.40;;;;;;5150072;27;45234;-66
2024/01/01 11:36:31;;;;;;;4.40;0.98;;;19.20;42.40;;;;;;5147033;27;45364;-66
2024/01/01 11:38:58;;;;;;;1.80;0.55;;;19.20;42.40;;;;;;5149284;27;45300;-66
2024/01/01 11:41:25;;;;;;;1.17;0.80;;;19.20;42.40;;;;;;5149212;27;45329;-65
2024/01/01 11:43:52;;;;;;;1.92;0.77;;;19.30;42.20;;;;;;5149598;27;45202;-65
2024/01/01 11:46:29;;;;;;;0.63;0.63;;;19.30;42.20;;;;;;5149411;27;45317;-65
2024/01/01 11:48:56;;;;;;;1.73;0.65;;;19.40;42.70;;;;;;5149022;27;45439;-63
2024/01/01 11:51:24;;;;;;;1.92;1.05;;;19.50;41.90;;;;;;5148689;27;45311;-63
2024/01/01 11:54:07;;;;;;;1.25;0.70;;;19.50;41.40;;;;;;5148965;27;45381;-62
2024/01/01 11:56:34;;;;;;;2.05;0.85;;;19.50;41.60;;;;;;5148676;27;45389;-62
2024/01/01 11:59:02;;;;;;;1.35;0.68;;;19.60;41.50;;;;;;5148465;27;45323;-63
2024/01/01 12:01:30;;;;;;;4.25;0.90;;;19.60;41.50;;;;;;5148515;27;45258;-63
2024/01/01 12:03:58;;;;;;;2.63;0.93;;;19.70;41.50;;;;;;5148833;27;45389;-63
2024/01/01 12:06:25;;;;;;;2.25;0.82;;;19.70;41.60;;;;;;5148875;27;45430;-63
2024/01/01 12:09:01;;;;;;;2.97;0.77;;;19.70;41.60;;;;;;5147935;27;45471;-63
2024/01/01 12:11:28;;;;;;;1.73;0.65;;;19.70;41.60;;;;;;5148457;27;45300;-63
2024/01/01 12:13:56;;;;;;;2.83;0.80;;;19.70;41.70;;;;;;5163882;27;45336;-62
2024/01/01 12:16:23;;;;;;;1.80;1.00;;;19.70;41.90;;;;;;5169908;27;45297;-63
2024/01/01 12:18:57;;;;;;;0.70;0.70;;;19.60;42.00;;;;;;5169346;27;45470;-64
2024/01/01 12:21:24;;;;;;;1.42;0.90;;;19.70;42.10;;;;;;5169239;27;45371;-63
2024/01/01 12:23:51;;;;;;;3.15;1.05;;;19.90;41.50;;;;;;5151297;27;45297;-64
2024/01/01 12:26:24;;;;;;;5.05;0.95;;;19.90;41.40;;;;;;5148395;27;45354;-63
2024/01/01 12:29:07;;;;;;;1.55;0.90;;;19.90;41.50;;;;;;5147984;27;45373;-64
2024/01/01 12:31:35;;;;;;;4.50;1.05;;;20.00;41.50;;;;;;5168446;27;45342;-63
2024/01/01 12:34:03;;;;;;;1.75;0.90;;;20.00;41.50;;;;;;5153213;27;45238;-64
2024/01/01 12:36:30;;;;;;;9.52;1.08;;;20.00;41.60;;;;;;5148042;27;45381;-64
2024/01/01 12:38:57;;;;;;;3.15;0.73;;;19.90;41.80;;;;;;5147616;27;45515;-63
2024/01/01 12:41:23;;;;;;;3.03;0.80;;;19.90;41.90;;;;;;5147518;27;45464;-63
2024/01/01 12:43:50;;;;;;;2.00;0.80;;;19.90;42.10;;;;;;5147896;27;45452;-63
2024/01/01 12:46:17;;;;;;;4.00;1.23;;;19.80;42.10;;;;;;5148207;27;45449;-64
2024/01/01 12:48:45;;;;;;;5.53;1.00;;;19.80;42.20;;;;;;5147784;27;46572;-64